Time;durP1;ratioP1;P1;durP2;ratioP2;P2;SDS_P1;SDS_P2;PMS_P1;PMS_P2;Temp;Humidity;BMP_temperature;BMP_pressure;BME280_temperature;BME280_humidity;BME280_pressure;Samples;Min_cycle;Max_cycle;Signal;HPM_P1;HPM_P2
2024/02/04 00:01:40;;;;;;;12.60;12.00;;;10.10;1.00;;;;;;5018983;28;20443;-59
2024/02/04 00:04:06;;;;;;;12.40;11.80;;;10.10;1.00;;;;;;5020870;28;21013;-57
2024/02/04 00:06:31;;;;;;;12.60;12.00;;;10.20;1.00;;;;;;5020294;28;20839;-48
2024/02/04 00:08:57;;;;;;;12.60;12.00;;;10.10;1.00;;;;;;5020686;28;20209;-52
2024/02/04 00:11:23;;;;;;;12.67;11.97;;;10.10;1.00;;;;;;5020734;28;20228;-59
2024/02/04 00:13:49;;;;;;;12.67;12.00;;;10.20;1.00;;;;;;5019747;28;20308;-58
2024/02/04 00:16:14;;;;;;;12.40;11.80;;;10.20;1.00;;;;;;5020330;28;20619;-58
2024/02/04 00:18:40;;;;;;;12.60;12.00;;;10.20;1.00;;;;;;5020286;28;20242;-59
2024/02/04 00:21:05;;;;;;;13.27;12.17;;;10.20;1.00;;;;;;5020678;28;20182;-58
2024/02/04 00:23:31;;;;;;;12.40;11.80;;;10.20;1.00;;;;;;5020299;28;20234;-57
2024/02/04 00:25:57;;;;;;;12.33;11.70;;;10.20;1.00;;;;;;5020343;28;20191;-59
2024/02/04 00:28:22;;;;;;;11.97;11.37;;;10.10;1.00;;;;;;5020075;28;20237;-39
2024/02/04 00:30:55;;;;;;;11.50;11.00;;;10.10;1.00;;;;;;5020274;28;20212;-40
2024/02/04 00:33:20;;;;;;;11.67;11.17;;;10.10;1.00;;;;;;5020214;28;20272;-40
2024/02/04 00:35:46;;;;;;;12.70;11.70;;;10.10;1.00;;;;;;5020478;28;20429;-39
2024/02/04 00:38:12;;;;;;;12.50;11.90;;;10.10;1.00;;;;;;5020727;28;20587;-40
2024/02/04 00:40:37;;;;;;;12.60;12.00;;;10.00;1.00;;;;;;5020079;28;20187;-40
2024/02/04 00:43:03;;;;;;;12.60;12.00;;;10.10;1.00;;;;;;5019241;28;20186;-39
2024/02/04 00:45:29;;;;;;;12.37;11.77;;;10.10;1.00;;;;;;5019803;28;20217;-49
2024/02/04 00:47:54;;;;;;;12.40;11.80;;;10.10;1.00;;;;;;5019553;28;20231;-59
2024/02/04 00:50:20;;;;;;;12.20;11.60;;;10.10;1.00;;;;;;5020358;28;20243;-56
2024/02/04 00:52:45;;;;;;;12.53;11.93;;;10.10;1.00;;;;;;5018621;28;20187;-39
2024/02/04 00:55:11;;;;;;;12.30;11.70;;;10.10;1.00;;;;;;5020219;28;20277;-39
2024/02/04 00:57:37;;;;;;;13.10;12.47;;;10.10;1.00;;;;;;5023497;28;20190;-39
2024/02/04 01:00:03;;;;;;;13.50;12.80;;;10.10;1.00;;;;;;5024146;28;20190;-40
2024/02/04 01:02:29;;;;;;;12.63;12.03;;;10.00;1.00;;;;;;5023881;28;20234;-40
2024/02/04 01:04:55;;;;;;;13.10;12.50;;;9.90;12.90;;;;;;5023685;28;20472;-55
2024/02/04 01:07:20;;;;;;;13.50;12.90;;;9.70;3.10;;;;;;5024075;28;20191;-51
2024/02/04 01:09:46;;;;;;;13.33;12.73;;;9.70;18.20;;;;;;5023417;28;20229;-55
2024/02/04 01:12:12;;;;;;;13.10;12.40;;;9.60;16.20;;;;;;5022817;28;20209;-59
2024/02/04 01:14:37;;;;;;;13.20;12.60;;;9.50;14.80;;;;;;5022997;28;20205;-58
2024/02/04 01:17:03;;;;;;;13.00;12.40;;;9.50;20.90;;;;;;5023674;28;20222;-56
2024/02/04 01:19:29;;;;;;;13.57;12.90;;;9.40;25.40;;;;;;5023446;28;20253;-50
2024/02/04 01:21:54;;;;;;;13.00;12.30;;;9.50;20.70;;;;;;5023443;28;20603;-58
2024/02/04 01:24:20;;;;;;;13.60;12.90;;;9.50;11.80;;;;;;5022787;28;20628;-59
2024/02/04 01:26:45;;;;;;;13.00;12.40;;;9.50;16.10;;;;;;5023153;28;20217;-59
2024/02/04 01:29:11;;;;;;;13.03;12.43;;;9.50;1.00;;;;;;5021862;28;20190;-56
2024/02/04 01:31:37;;;;;;;13.10;12.50;;;9.50;1.00;;;;;;5022969;28;20265;-56
2024/02/04 01:34:02;;;;;;;12.67;12.07;;;9.50;1.00;;;;;;5023243;28;20245;-58
2024/02/04 01:36:28;;;;;;;12.80;12.20;;;9.50;1.00;;;;;;5023104;28;20464;-58
2024/02/04 01:38:54;;;;;;;12.77;12.17;;;9.60;1.00;;;;;;5022952;28;20198;-58
2024/02/04 01:41:19;;;;;;;13.20;12.50;;;9.60;1.00;;;;;;5022539;28;20255;-56
2024/02/04 01:43:45;;;;;;;12.90;12.30;;;9.70;1.00;;;;;;5023025;28;20210;-59
2024/02/04 01:46:11;;;;;;;13.10;12.40;;;9.70;1.00;;;;;;5023066;28;20187;-58
2024/02/04 01:48:37;;;;;;;12.93;12.33;;;9.70;1.00;;;;;;5022700;28;21087;-58
2024/02/04 01:51:04;;;;;;;12.60;12.10;;;9.70;1.00;;;;;;5023115;28;20443;-58
2024/02/04 01:53:32;;;;;;;12.40;11.80;;;9.80;1.00;;;;;;5022884;28;20421;-59
2024/02/04 01:55:58;;;;;;;12.80;12.20;;;9.80;1.00;;;;;;5023168;28;20524;-58
2024/02/04 01:58:24;;;;;;;12.40;11.90;;;9.80;1.00;;;;;;5022708;28;20463;-59
2024/02/04 02:00:50;;;;;;;12.60;12.00;;;9.70;1.00;;;;;;5022941;28;20417;-59
2024/02/04 02:03:16;;;;;;;12.13;11.63;;;9.60;1.00;;;;;;5022873;28;20413;-59
2024/02/04 02:05:42;;;;;;;12.10;11.60;;;9.60;1.00;;;;;;5022706;28;20428;-59
2024/02/04 02:08:09;;;;;;;12.80;12.17;;;9.60;1.00;;;;;;5022551;28;20417;-55
2024/02/04 02:10:35;;;;;;;12.50;11.80;;;9.60;1.00;;;;;;5021942;28;21492;-58
2024/02/04 02:13:11;;;;;;;12.60;12.00;;;9.50;1.00;;;;;;5022077;28;20440;-51
2024/02/04 02:15:43;;;;;;;12.37;11.80;;;9.50;1.00;;;;;;5022783;28;20425;-59
2024/02/04 02:18:40;;;;;;;12.17;11.57;;;9.50;1.00;;;;;;5021827;28;20465;-40
2024/02/04 02:21:50;;;;;;;13.00;12.40;;;9.50;1.00;;;;;;5022718;28;20516;-39
2024/02/04 02:24:27;;;;;;;12.10;11.50;;;9.40;1.00;;;;;;5016529;28;20555;-41
2024/02/04 02:26:54;;;;;;;12.33;11.83;;;9.50;1.00;;;;;;5021053;28;20424;-40
2024/02/04 02:29:19;;;;;;;12.50;11.90;;;9.40;1.00;;;;;;5020958;28;20441;-42
2024/02/04 02:31:45;;;;;;;11.90;11.40;;;9.40;1.00;;;;;;5021710;28;20421;-39
2024/02/04 02:34:11;;;;;;;12.40;11.80;;;9.40;1.00;;;;;;5022382;28;20183;-40
2024/02/04 02:36:44;;;;;;;11.67;11.17;;;9.40;1.00;;;;;;5022097;28;20428;-39
2024/02/04 02:39:37;;;;;;;12.03;11.53;;;9.40;1.00;;;;;;5021095;28;20800;-39
2024/02/04 02:42:04;;;;;;;12.40;11.80;;;9.50;1.00;;;;;;5021821;28;20990;-58
2024/02/04 02:44:31;;;;;;;12.57;11.97;;;9.50;1.00;;;;;;5020451;28;20469;-58
2024/02/04 02:46:59;;;;;;;12.67;11.77;;;9.40;1.00;;;;;;5022010;28;20759;-58
2024/02/04 02:49:25;;;;;;;12.60;12.00;;;9.50;1.00;;;;;;5021974;28;20466;-59
2024/02/04 02:51:50;;;;;;;12.40;11.83;;;9.50;1.00;;;;;;5022041;28;20460;-59
2024/02/04 02:54:16;;;;;;;13.03;12.40;;;9.50;1.00;;;;;;5021494;28;20256;-60
2024/02/04 02:56:41;;;;;;;13.27;12.57;;;9.50;1.00;;;;;;5021732;28;20288;-59
2024/02/04 02:59:08;;;;;;;13.30;12.60;;;9.50;1.00;;;;;;5021243;28;20190;-58
2024/02/04 03:01:33;;;;;;;13.60;12.80;;;9.50;1.00;;;;;;5021306;28;20248;-58
2024/02/04 03:04:28;;;;;;;13.27;12.53;;;9.50;1.00;;;;;;5021157;28;21306;-57
2024/02/04 03:06:54;;;;;;;13.37;12.67;;;9.50;1.00;;;;;;5021400;28;20190;-58
2024/02/04 03:09:19;;;;;;;13.50;12.80;;;9.50;1.00;;;;;;5020187;28;20429;-58
2024/02/04 03:11:46;;;;;;;13.73;12.93;;;9.50;1.00;;;;;;5021606;28;20562;-55
2024/02/04 03:14:11;;;;;;;13.27;12.57;;;9.60;1.00;;;;;;5021417;28;20190;-58
2024/02/04 03:16:37;;;;;;;13.90;13.10;;;9.70;1.00;;;;;;5021369;28;20425;-58
2024/02/04 03:19:05;;;;;;;13.57;12.77;;;9.80;1.00;;;;;;5020500;28;21125;-59
2024/02/04 03:21:31;;;;;;;13.90;13.03;;;9.80;1.00;;;;;;5021451;28;20190;-59
2024/02/04 03:23:56;;;;;;;13.87;13.00;;;9.80;1.00;;;;;;5020921;28;20487;-59
2024/02/04 03:26:22;;;;;;;13.30;12.50;;;9.80;1.00;;;;;;5021695;28;20197;-59
2024/02/04 03:28:48;;;;;;;13.63;12.83;;;9.80;1.00;;;;;;5021153;28;20220;-59
2024/02/04 03:31:23;;;;;;;13.83;13.03;;;9.80;1.00;;;;;;5021432;28;20178;-57
2024/02/04 03:33:49;;;;;;;14.10;13.30;;;9.80;1.00;;;;;;5020956;28;20224;-58
2024/02/04 03:36:23;;;;;;;13.47;12.77;;;9.70;1.00;;;;;;5021064;28;20508;-57
2024/02/04 03:38:49;;;;;;;14.00;13.20;;;9.70;1.00;;;;;;5020242;28;20428;-50
2024/02/04 03:41:15;;;;;;;14.30;13.40;;;9.70;1.00;;;;;;5020721;28;20954;-59
2024/02/04 03:43:40;;;;;;;13.60;12.90;;;9.60;3.10;;;;;;5020804;28;20487;-57
2024/02/04 03:46:06;;;;;;;13.20;12.50;;;9.50;9.00;;;;;;5020702;28;20668;-59
2024/02/04 03:48:33;;;;;;;13.17;12.50;;;9.60;9.50;;;;;;5020653;28;20186;-58
2024/02/04 03:50:59;;;;;;;13.70;12.90;;;9.50;3.50;;;;;;5020956;28;20178;-57
2024/02/04 03:53:25;;;;;;;13.60;12.90;;;9.50;1.00;;;;;;5020403;28;20421;-56
2024/02/04 03:55:50;;;;;;;12.90;12.30;;;9.50;1.60;;;;;;5021198;28;20222;-54
2024/02/04 03:58:16;;;;;;;14.00;13.20;;;9.50;1.00;;;;;;5020555;28;20425;-59
2024/02/04 04:00:42;;;;;;;12.77;12.17;;;9.50;1.00;;;;;;5020556;28;20584;-59
2024/02/04 04:03:08;;;;;;;13.63;12.73;;;9.50;1.00;;;;;;5020828;28;20431;-59
2024/02/04 04:05:33;;;;;;;13.20;12.50;;;9.40;1.00;;;;;;5020367;28;20232;-58
2024/02/04 04:07:59;;;;;;;13.20;12.60;;;9.40;1.00;;;;;;5020917;28;20225;-58
2024/02/04 04:10:24;;;;;;;13.23;12.60;;;9.30;1.00;;;;;;5020441;28;21103;-57
2024/02/04 04:12:50;;;;;;;13.10;12.50;;;9.30;4.70;;;;;;5020390;28;20193;-58
2024/02/04 04:15:16;;;;;;;13.17;12.50;;;9.30;14.60;;;;;;5020184;28;20194;-57
2024/02/04 04:17:42;;;;;;;13.77;13.07;;;9.40;17.30;;;;;;5019587;28;20194;-59
2024/02/04 04:20:08;;;;;;;14.00;13.20;;;9.40;4.70;;;;;;5020487;28;20183;-58
2024/02/04 04:22:33;;;;;;;13.60;12.90;;;9.40;1.00;;;;;;5020864;28;20562;-39
2024/02/04 04:24:59;;;;;;;13.87;13.17;;;9.40;1.00;;;;;;5019835;28;20538;-39
2024/02/04 04:27:24;;;;;;;13.80;13.00;;;9.40;1.00;;;;;;5021014;28;20190;-40
2024/02/04 04:29:50;;;;;;;14.20;13.40;;;9.30;1.00;;;;;;5020311;28;20178;-40
2024/02/04 04:32:16;;;;;;;12.90;12.30;;;9.30;2.30;;;;;;5023670;28;20269;-39
2024/02/04 04:34:41;;;;;;;12.70;12.10;;;9.40;1.00;;;;;;5024227;28;20178;-40
2024/02/04 04:37:07;;;;;;;13.20;12.50;;;9.30;1.00;;;;;;5024711;28;20190;-40
2024/02/04 04:39:32;;;;;;;13.70;12.90;;;9.40;1.00;;;;;;5022704;28;20186;-55
2024/02/04 04:41:58;;;;;;;13.87;13.07;;;9.40;1.00;;;;;;5024251;28;20649;-57
2024/02/04 04:44:24;;;;;;;13.57;12.87;;;9.40;1.00;;;;;;5024105;28;20266;-59
2024/02/04 04:46:49;;;;;;;13.83;13.07;;;9.40;1.00;;;;;;5023893;28;20186;-39
2024/02/04 04:49:15;;;;;;;13.57;12.87;;;9.50;1.00;;;;;;5023816;28;20190;-39
2024/02/04 04:51:46;;;;;;;12.80;12.20;;;9.50;1.00;;;;;;5023982;28;20189;-39
2024/02/04 04:54:11;;;;;;;12.90;12.20;;;9.50;1.00;;;;;;5023897;28;20190;-39
2024/02/04 04:56:40;;;;;;;13.70;12.93;;;9.60;1.00;;;;;;5024863;28;20758;-40
2024/02/04 04:59:09;;;;;;;13.17;12.47;;;9.60;1.00;;;;;;5023897;28;20190;-40
2024/02/04 05:01:35;;;;;;;13.07;12.37;;;9.60;1.00;;;;;;5023878;28;20421;-40
2024/02/04 05:04:01;;;;;;;12.90;12.27;;;9.70;1.00;;;;;;5023614;28;21064;-58
2024/02/04 05:06:26;;;;;;;13.10;12.40;;;9.70;1.00;;;;;;5022794;28;20191;-57
2024/02/04 05:08:52;;;;;;;12.20;11.60;;;9.80;1.00;;;;;;5023438;28;21006;-59
2024/02/04 05:11:18;;;;;;;12.80;12.10;;;9.80;1.00;;;;;;5023986;28;20175;-48
2024/02/04 05:13:44;;;;;;;12.00;11.40;;;9.80;1.00;;;;;;5023590;28;20431;-52
2024/02/04 05:16:09;;;;;;;13.10;12.30;;;9.80;1.00;;;;;;5023433;28;20185;-58
2024/02/04 05:18:35;;;;;;;12.03;11.43;;;9.80;1.00;;;;;;5023255;28;20229;-59
2024/02/04 05:21:02;;;;;;;12.30;11.70;;;9.80;1.00;;;;;;5023726;28;20195;-58
2024/02/04 05:23:28;;;;;;;12.93;12.23;;;9.80;1.00;;;;;;5021921;28;20328;-59
2024/02/04 05:25:53;;;;;;;12.63;12.03;;;9.90;1.00;;;;;;5023409;28;20536;-59
2024/02/04 05:28:20;;;;;;;12.83;12.13;;;9.90;1.00;;;;;;5023505;28;20263;-59
2024/02/04 05:30:45;;;;;;;12.50;11.90;;;9.90;1.00;;;;;;5023572;28;20553;-59
2024/02/04 05:33:14;;;;;;;12.50;11.77;;;9.90;1.00;;;;;;5023447;28;20409;-59
2024/02/04 05:35:42;;;;;;;11.80;11.20;;;10.00;1.00;;;;;;5023169;28;20748;-58
2024/02/04 05:38:08;;;;;;;12.17;11.57;;;10.00;1.00;;;;;;5023031;28;21213;-55
2024/02/04 05:40:34;;;;;;;12.40;11.80;;;9.90;1.00;;;;;;5022564;28;20433;-59
2024/02/04 05:42:59;;;;;;;12.37;11.70;;;9.90;1.00;;;;;;5022613;28;20554;-56
2024/02/04 05:45:25;;;;;;;12.83;12.17;;;9.90;1.00;;;;;;5022949;28;20194;-57
2024/02/04 05:47:51;;;;;;;13.07;12.27;;;10.00;1.00;;;;;;5022980;28;20186;-59
2024/02/04 05:50:16;;;;;;;12.40;11.80;;;10.00;1.00;;;;;;5022712;28;20194;-60
2024/02/04 05:52:42;;;;;;;12.70;12.00;;;10.00;1.00;;;;;;5021744;28;20421;-53
2024/02/04 05:55:09;;;;;;;12.53;11.90;;;10.00;1.00;;;;;;5022792;28;20201;-58
2024/02/04 05:57:35;;;;;;;11.80;11.30;;;9.90;1.00;;;;;;5022388;28;20236;-59
2024/02/04 06:00:01;;;;;;;12.80;12.00;;;9.90;1.00;;;;;;5022895;28;20425;-60
2024/02/04 06:02:26;;;;;;;12.33;11.73;;;9.80;1.00;;;;;;5020852;28;20175;-57
2024/02/04 06:04:52;;;;;;;12.13;11.40;;;9.90;1.00;;;;;;5022903;28;20575;-58
2024/02/04 06:07:17;;;;;;;12.47;11.77;;;9.90;1.00;;;;;;5022743;28;20625;-59
2024/02/04 06:09:43;;;;;;;12.33;11.73;;;9.80;1.00;;;;;;5022732;28;20189;-58
2024/02/04 06:12:08;;;;;;;13.03;12.33;;;9.90;1.00;;;;;;5022508;28;20804;-59
2024/02/04 06:14:36;;;;;;;12.20;11.60;;;9.90;1.00;;;;;;5021158;28;20229;-60
2024/02/04 06:17:01;;;;;;;12.80;12.10;;;9.80;1.00;;;;;;5022414;28;20191;-59
2024/02/04 06:19:27;;;;;;;12.27;11.67;;;9.80;1.00;;;;;;5022236;28;20465;-59
2024/02/04 06:21:52;;;;;;;12.63;11.83;;;9.90;1.00;;;;;;5022373;28;20277;-59
2024/02/04 06:24:20;;;;;;;12.33;11.63;;;9.80;1.00;;;;;;5022506;28;20198;-50
2024/02/04 06:26:45;;;;;;;13.10;12.40;;;9.80;1.00;;;;;;5022554;28;20178;-59
2024/02/04 06:29:11;;;;;;;12.47;11.77;;;9.80;1.00;;;;;;5022234;28;20435;-59
2024/02/04 06:31:36;;;;;;;12.90;12.20;;;9.80;1.00;;;;;;5020902;28;20182;-60
2024/02/04 06:34:02;;;;;;;12.60;12.00;;;9.80;7.60;;;;;;5018107;28;20700;-39
2024/02/04 06:36:28;;;;;;;14.33;13.53;;;9.80;29.50;;;;;;5021955;28;20216;-58
2024/02/04 06:38:53;;;;;;;14.40;13.63;;;9.70;48.30;;;;;;5022027;28;20187;-59
2024/02/04 06:41:19;;;;;;;14.90;14.10;;;9.60;66.20;;;;;;5021228;28;20212;-58
2024/02/04 06:43:46;;;;;;;14.13;13.43;;;9.60;98.80;;;;;;5021513;28;20277;-60
2024/02/04 06:46:11;;;;;;;14.63;13.80;;;9.50;99.90;;;;;;5021565;28;20179;-59
2024/02/04 06:48:37;;;;;;;13.33;12.73;;;9.50;99.90;;;;;;5022683;28;20409;-58
2024/02/04 06:51:02;;;;;;;13.53;12.90;;;9.30;99.90;;;;;;5021623;28;20236;-60
2024/02/04 06:53:28;;;;;;;13.40;12.80;;;9.30;99.90;;;;;;5021081;28;20257;-55
2024/02/04 06:55:54;;;;;;;14.40;13.70;;;9.40;99.90;;;;;;5020349;28;20183;-59
2024/02/04 06:58:19;;;;;;;13.80;13.10;;;9.30;99.90;;;;;;5021917;28;20179;-61
2024/02/04 07:00:46;;;;;;;14.03;13.33;;;9.30;99.90;;;;;;5019493;28;20263;-59
2024/02/04 07:03:12;;;;;;;12.90;12.30;;;9.30;99.90;;;;;;5018389;28;20293;-57
2024/02/04 07:05:37;;;;;;;13.53;12.80;;;9.30;99.90;;;;;;5021652;28;20490;-57
2024/02/04 07:08:03;;;;;;;14.23;13.47;;;9.30;99.90;;;;;;5021187;28;20209;-56
2024/02/04 07:10:29;;;;;;;13.97;13.27;;;9.30;99.90;;;;;;5021039;28;20420;-57
2024/02/04 07:12:54;;;;;;;14.37;13.57;;;9.40;99.90;;;;;;5021469;28;20421;-58
2024/02/04 07:15:20;;;;;;;13.77;13.07;;;9.40;99.90;;;;;;5020913;28;20894;-49
2024/02/04 07:17:46;;;;;;;14.00;13.30;;;9.50;99.90;;;;;;5021115;28;20182;-58
2024/02/04 07:20:11;;;;;;;14.03;13.33;;;9.50;99.90;;;;;;5020747;28;20186;-57
2024/02/04 07:22:37;;;;;;;13.60;13.00;;;9.50;99.90;;;;;;5021369;28;20583;-39
2024/02/04 07:25:03;;;;;;;13.50;12.80;;;9.50;99.90;;;;;;5020920;28;20252;-40
2024/02/04 07:27:29;;;;;;;14.23;13.53;;;9.60;99.90;;;;;;5020041;28;20289;-40
2024/02/04 07:29:54;;;;;;;13.97;13.37;;;9.70;99.90;;;;;;5021823;28;21431;-40
2024/02/04 07:32:21;;;;;;;14.50;13.80;;;9.70;99.90;;;;;;5018029;28;20197;-39
2024/02/04 07:34:46;;;;;;;14.37;13.67;;;9.80;99.90;;;;;;5020989;28;20214;-38
2024/02/04 07:37:12;;;;;;;14.20;13.50;;;9.80;99.90;;;;;;5020040;28;20963;-39
2024/02/04 07:39:37;;;;;;;13.67;13.07;;;9.80;99.10;;;;;;5019022;28;20556;-57
2024/02/04 07:42:03;;;;;;;15.10;14.33;;;9.80;98.50;;;;;;5020119;28;20195;-57
2024/02/04 07:44:29;;;;;;;13.93;13.33;;;9.90;61.80;;;;;;5020855;28;20210;-57
2024/02/04 07:46:55;;;;;;;13.93;13.20;;;9.90;60.40;;;;;;5020978;28;20191;-57
2024/02/04 07:49:20;;;;;;;17.73;16.47;;;10.00;49.00;;;;;;5020598;28;20975;-59
2024/02/04 07:51:46;;;;;;;13.87;13.17;;;10.00;40.80;;;;;;5020740;28;20178;-57
2024/02/04 07:54:12;;;;;;;14.20;13.50;;;10.10;28.10;;;;;;5020938;28;20191;-58
2024/02/04 07:56:37;;;;;;;13.43;12.83;;;10.10;4.90;;;;;;5020532;28;20187;-58
2024/02/04 07:59:03;;;;;;;13.73;13.13;;;10.10;1.00;;;;;;5020842;28;20657;-59
2024/02/04 08:01:29;;;;;;;13.60;13.00;;;10.20;1.00;;;;;;5020423;28;20194;-57
2024/02/04 08:03:55;;;;;;;13.80;13.20;;;10.20;1.00;;;;;;5020582;28;20970;-58
2024/02/04 08:06:21;;;;;;;13.43;12.83;;;10.30;1.00;;;;;;5017055;28;20437;-58
2024/02/04 08:08:47;;;;;;;12.30;11.80;;;10.40;1.00;;;;;;5019671;28;20202;-57
2024/02/04 08:11:17;;;;;;;13.13;12.60;;;10.40;1.00;;;;;;5020364;28;20178;-58
2024/02/04 08:13:44;;;;;;;12.30;11.80;;;10.50;1.00;;;;;;5020032;28;20491;-57
2024/02/04 08:16:09;;;;;;;12.10;11.60;;;10.60;1.00;;;;;;5019648;28;20504;-57
2024/02/04 08:18:35;;;;;;;11.67;11.20;;;10.80;99.90;;;;;;5019550;28;21113;-58
2024/02/04 08:21:01;;;;;;;11.27;10.80;;;10.90;1.00;;;;;;5020167;28;20402;-57
2024/02/04 08:23:30;;;;;;;10.63;10.23;;;11.00;1.00;;;;;;5019690;28;20203;-58
2024/02/04 08:25:56;;;;;;;11.23;10.73;;;11.10;1.00;;;;;;5019151;28;20922;-59
2024/02/04 08:28:23;;;;;;;11.13;10.73;;;11.20;1.00;;;;;;5009051;28;20966;-56
2024/02/04 08:30:49;;;;;;;10.57;10.17;;;11.30;80.60;;;;;;5018507;28;20479;-60
2024/02/04 08:33:15;;;;;;;10.67;10.17;;;11.30;99.90;;;;;;5020189;28;20544;-58
2024/02/04 08:35:40;;;;;;;9.80;9.40;;;11.40;99.90;;;;;;5017555;28;20434;-58
2024/02/04 08:38:06;;;;;;;10.90;10.40;;;11.30;99.90;;;;;;5018776;28;20285;-54
2024/02/04 08:40:32;;;;;;;10.00;9.60;;;11.40;1.00;;;;;;5019267;28;20179;-58
2024/02/04 08:42:57;;;;;;;10.83;10.43;;;11.40;99.90;;;;;;5016342;28;20679;-54
2024/02/04 08:45:23;;;;;;;11.37;10.87;;;11.40;99.90;;;;;;5017577;28;20205;-55
2024/02/04 08:47:48;;;;;;;10.60;10.20;;;11.50;99.90;;;;;;5018000;28;20861;-40
2024/02/04 08:50:14;;;;;;;10.37;9.97;;;11.50;1.00;;;;;;5018280;28;20622;-57
2024/02/04 08:52:40;;;;;;;10.37;9.97;;;11.60;1.00;;;;;;5017576;28;20583;-57
2024/02/04 08:55:05;;;;;;;11.00;10.60;;;11.50;99.90;;;;;;5017064;28;20646;-56
2024/02/04 08:57:31;;;;;;;10.50;10.10;;;11.60;99.90;;;;;;5017116;28;20269;-58
2024/02/04 08:59:57;;;;;;;10.57;10.17;;;11.60;1.00;;;;;;5017995;28;20432;-58
2024/02/04 09:02:22;;;;;;;10.30;9.90;;;11.60;1.00;;;;;;5017985;28;20205;-56
2024/02/04 09:04:48;;;;;;;10.37;9.97;;;11.60;99.90;;;;;;5018663;28;20588;-40
2024/02/04 09:07:14;;;;;;;10.60;10.20;;;11.70;99.90;;;;;;5018683;28;20588;-42
2024/02/04 09:09:39;;;;;;;10.70;10.30;;;11.70;99.90;;;;;;5018263;28;20193;-44
2024/02/04 09:12:05;;;;;;;10.20;9.80;;;11.70;1.00;;;;;;5017780;28;20186;-40
2024/02/04 09:14:31;;;;;;;10.93;10.50;;;11.60;1.00;;;;;;5017460;28;20190;-39
2024/02/04 09:16:56;;;;;;;10.53;10.13;;;11.60;99.90;;;;;;5019241;28;20630;-41
2024/02/04 09:19:24;;;;;;;10.83;10.43;;;11.50;99.90;;;;;;5022071;28;20234;-40
2024/02/04 09:21:49;;;;;;;10.40;10.00;;;11.40;1.00;;;;;;5021587;28;20289;-43
2024/02/04 09:24:15;;;;;;;11.70;11.20;;;11.20;99.90;;;;;;5021825;28;20982;-40
2024/02/04 09:26:41;;;;;;;11.27;10.80;;;11.00;99.90;;;;;;5019334;28;20193;-40
2024/02/04 09:29:06;;;;;;;11.80;11.30;;;10.90;1.00;;;;;;5021983;28;20565;-39
2024/02/04 09:31:32;;;;;;;12.50;11.90;;;10.80;1.00;;;;;;5022221;28;20526;-40
2024/02/04 09:33:58;;;;;;;12.57;12.07;;;10.60;1.00;;;;;;5021930;28;20178;-43
2024/02/04 09:36:23;;;;;;;12.67;12.17;;;10.40;3.60;;;;;;5022003;28;20243;-39
2024/02/04 09:38:49;;;;;;;12.77;12.27;;;10.40;49.30;;;;;;5021439;28;20420;-40
2024/02/04 09:41:15;;;;;;;13.53;12.93;;;10.30;78.50;;;;;;5022206;28;20205;-42
2024/02/04 09:43:41;;;;;;;12.30;11.80;;;10.20;95.50;;;;;;5021352;28;20194;-41
2024/02/04 09:46:08;;;;;;;12.60;12.00;;;10.20;99.90;;;;;;5020832;28;20255;-39
2024/02/04 09:48:33;;;;;;;12.40;11.90;;;10.20;99.90;;;;;;5020632;28;20413;-57
2024/02/04 09:50:59;;;;;;;12.73;12.20;;;10.20;92.00;;;;;;5021056;28;20440;-54
2024/02/04 09:53:35;;;;;;;12.10;11.60;;;10.20;65.90;;;;;;5021719;28;20221;-57
2024/02/04 09:56:06;;;;;;;12.07;11.57;;;10.20;99.90;;;;;;5021013;28;20429;-55
2024/02/04 09:58:32;;;;;;;11.93;11.43;;;10.20;99.90;;;;;;5020418;28;20429;-55
2024/02/04 10:01:00;;;;;;;12.17;11.67;;;10.20;99.90;;;;;;5021195;28;20512;-57
2024/02/04 10:03:26;;;;;;;12.23;11.73;;;10.20;17.60;;;;;;5021790;28;20853;-56
2024/02/04 10:05:51;;;;;;;11.73;11.27;;;10.30;99.90;;;;;;5020923;28;20541;-54
2024/02/04 10:08:18;;;;;;;11.97;11.47;;;10.30;99.90;;;;;;5021047;28;20446;-58
2024/02/04 10:10:43;;;;;;;11.70;11.20;;;10.40;99.90;;;;;;5018988;28;20668;-47
2024/02/04 10:13:09;;;;;;;11.27;10.77;;;10.50;99.90;;;;;;5017435;28;20425;-57
2024/02/04 10:15:35;;;;;;;11.10;10.60;;;10.50;99.90;;;;;;5021369;28;20186;-56
2024/02/04 10:18:05;;;;;;;10.67;10.27;;;10.50;99.90;;;;;;5022115;28;20230;-58
2024/02/04 10:20:32;;;;;;;12.00;11.50;;;10.50;99.90;;;;;;5022047;28;20409;-54
2024/02/04 10:22:58;;;;;;;11.77;11.27;;;10.50;99.90;;;;;;5021452;28;20417;-46
2024/02/04 10:25:24;;;;;;;12.60;12.10;;;10.50;99.90;;;;;;5021952;28;20515;-58
2024/02/04 10:27:50;;;;;;;12.53;12.03;;;10.50;99.90;;;;;;5017426;28;20937;-57
2024/02/04 10:30:18;;;;;;;12.73;12.23;;;10.50;99.90;;;;;;5013230;28;20495;-56
2024/02/04 10:32:45;;;;;;;12.80;12.20;;;10.50;99.90;;;;;;5020797;28;20413;-57
2024/02/04 10:35:11;;;;;;;12.70;12.20;;;10.50;99.90;;;;;;5022402;28;20897;-53
2024/02/04 10:37:37;;;;;;;12.93;12.33;;;10.50;99.90;;;;;;5021740;28;20425;-51
2024/02/04 10:40:04;;;;;;;12.47;11.87;;;10.50;99.90;;;;;;5021615;28;20424;-57
2024/02/04 10:42:30;;;;;;;12.60;12.03;;;10.50;99.90;;;;;;5021196;28;20194;-56
2024/02/04 10:44:58;;;;;;;13.93;13.30;;;10.50;99.90;;;;;;5021011;28;20476;-58
2024/02/04 10:47:29;;;;;;;13.37;12.67;;;10.50;99.90;;;;;;5021445;28;20430;-52
2024/02/04 10:49:58;;;;;;;13.53;12.73;;;10.40;99.90;;;;;;5021909;28;20439;-57
2024/02/04 10:52:27;;;;;;;13.73;13.03;;;10.50;99.90;;;;;;5021360;28;20453;-55
2024/02/04 10:54:53;;;;;;;13.90;13.20;;;10.50;99.90;;;;;;5020305;28;20436;-56
2024/02/04 10:57:30;;;;;;;13.80;13.20;;;10.50;99.90;;;;;;5019057;28;20448;-47
2024/02/04 10:59:58;;;;;;;13.57;12.77;;;10.50;99.90;;;;;;5020740;28;20436;-54
2024/02/04 11:02:25;;;;;;;13.77;13.07;;;10.40;99.90;;;;;;5022088;28;21206;-54
2024/02/04 11:04:52;;;;;;;13.63;12.93;;;10.50;99.90;;;;;;5022037;28;21360;-57
2024/02/04 11:07:19;;;;;;;14.07;13.27;;;10.50;99.90;;;;;;5021986;28;20432;-57
2024/02/04 11:09:49;;;;;;;13.33;12.73;;;10.50;99.90;;;;;;5021844;28;20488;-57
2024/02/04 11:12:18;;;;;;;13.27;12.57;;;10.60;99.90;;;;;;5021029;28;20958;-58
2024/02/04 11:14:50;;;;;;;12.93;12.30;;;10.50;46.30;;;;;;5021400;28;20429;-57
2024/02/04 11:17:33;;;;;;;12.67;12.17;;;10.50;35.20;;;;;;5021052;28;20417;-40
2024/02/04 11:20:20;;;;;;;13.57;12.97;;;10.50;99.90;;;;;;5020750;28;20465;-39
2024/02/04 11:22:49;;;;;;;13.40;12.80;;;10.50;99.90;;;;;;5021154;28;20415;-40
2024/02/04 11:25:33;;;;;;;13.20;12.70;;;10.50;99.90;;;;;;5019924;28;20457;-56
2024/02/04 11:27:59;;;;;;;12.83;12.23;;;10.50;99.90;;;;;;5017691;28;20424;-56
2024/02/04 11:30:27;;;;;;;12.90;12.40;;;10.60;99.90;;;;;;5021210;28;20449;-52
2024/02/04 11:32:52;;;;;;;11.50;11.00;;;10.60;99.90;;;;;;5021061;28;20424;-54
2024/02/04 11:35:20;;;;;;;12.63;12.13;;;10.60;99.90;;;;;;5021224;28;20429;-57
2024/02/04 11:37:46;;;;;;;12.17;11.67;;;10.60;99.90;;;;;;5020895;28;20716;-58
2024/02/04 11:40:18;;;;;;;12.30;11.80;;;10.60;99.90;;;;;;5020438;28;20421;-56
2024/02/04 11:42:45;;;;;;;12.17;11.30;;;10.70;99.90;;;;;;5020787;28;20916;-50
2024/02/04 11:45:14;;;;;;;11.60;11.10;;;10.80;99.90;;;;;;5019537;28;20474;-58
2024/02/04 11:47:40;;;;;;;12.43;11.87;;;10.80;99.90;;;;;;5020796;28;20479;-56
2024/02/04 11:50:07;;;;;;;12.13;11.63;;;10.90;99.90;;;;;;5014449;28;20433;-56
2024/02/04 11:52:32;;;;;;;11.67;11.17;;;10.90;99.90;;;;;;5019235;28;20511;-57
2024/02/04 11:54:59;;;;;;;10.50;10.03;;;10.90;99.90;;;;;;5019855;28;20441;-56
2024/02/04 11:57:25;;;;;;;11.00;10.60;;;11.00;99.90;;;;;;5019015;28;20441;-56
2024/02/04 11:59:52;;;;;;;10.57;10.07;;;10.90;99.90;;;;;;5019713;28;20441;-57
2024/02/04 12:04:46;;;;;;;12.53;11.93;;;10.80;99.90;;;;;;5023091;28;20496;-45
2024/02/04 12:07:13;;;;;;;12.60;12.00;;;10.70;99.90;;;;;;5022700;28;20417;-45
2024/02/04 12:09:39;;;;;;;12.40;11.90;;;10.60;99.90;;;;;;5025558;28;20432;-43
2024/02/04 12:12:05;;;;;;;12.70;12.10;;;10.60;99.90;;;;;;5026908;28;20418;-42
2024/02/04 12:14:31;;;;;;;11.93;11.30;;;10.60;99.90;;;;;;5029534;28;20189;-46
2024/02/04 12:16:57;;;;;;;12.63;12.10;;;10.60;99.90;;;;;;5036905;28;20419;-44
2024/02/04 12:19:23;;;;;;;12.50;11.90;;;10.60;99.90;;;;;;5027040;28;21067;-42
2024/02/04 12:21:49;;;;;;;12.30;11.70;;;10.70;99.90;;;;;;5022538;28;20941;-46
2024/02/04 12:24:15;;;;;;;13.00;12.30;;;10.80;99.90;;;;;;5015929;28;20550;-44
2024/02/04 12:26:42;;;;;;;12.00;11.40;;;10.80;99.90;;;;;;5029374;28;20196;-44
2024/02/04 12:29:08;;;;;;;11.80;11.30;;;10.90;99.90;;;;;;5024805;28;20435;-45
2024/02/04 12:31:33;;;;;;;12.13;11.53;;;11.00;99.90;;;;;;5031212;28;20914;-43
2024/02/04 12:34:03;;;;;;;11.43;10.93;;;11.00;99.90;;;;;;5026001;28;20296;-43
2024/02/04 12:36:31;;;;;;;11.80;11.20;;;11.00;99.90;;;;;;5026474;28;20175;-46
2024/02/04 12:39:00;;;;;;;11.60;11.00;;;11.20;99.90;;;;;;5027869;28;20417;-46